Time;durP1;ratioP1;P1;durP2;ratioP2;P2;SDS_P1;SDS_P2;PMS_P1;PMS_P2;Temp;Humidity;BMP_temperature;BMP_pressure;BME280_temperature;BME280_humidity;BME280_pressure;Samples;Min_cycle;Max_cycle;Signal;HPM_P1;HPM_P2
2022/09/09 00:00:31;;;;;;;;;;;25.20;49.00;23.90;100386.00;;;;5085783;27;19915;-70
2022/09/09 00:03:27;;;;;;;;;;;25.20;49.00;23.90;100382.00;;;;5084267;28;19912;-71
2022/09/09 00:06:18;;;;;;;;;;;25.20;49.00;23.80;100376.00;;;;5095910;27;19965;-71
2022/09/09 00:09:11;;;;;;;;;;;25.20;49.00;23.80;100377.00;;;;5096763;27;20377;-70
2022/09/09 00:12:15;;;;;;;;;;;25.20;49.10;23.80;100377.00;;;;5095057;28;19912;-70
2022/09/09 00:15:07;;;;;;;;;;;25.20;49.10;23.80;100372.00;;;;5081715;28;19916;-70
2022/09/09 00:18:03;;;;;;;;;;;25.20;49.10;23.80;100380.00;;;;5104766;28;19955;-70
2022/09/09 00:21:06;;;;;;;;;;;25.20;49.10;23.80;100378.00;;;;5086539;28;19922;-70
2022/09/09 00:23:53;;;;;;;;;;;25.10;49.80;23.80;100385.00;;;;5094303;28;19915;-70
2022/09/09 00:26:45;;;;;;;;;;;25.10;49.10;23.80;100379.00;;;;5101924;27;19912;-70
2022/09/09 00:29:42;;;;;;;;;;;25.10;49.10;23.70;100380.00;;;;5102155;27;19994;-71
2022/09/09 00:32:29;;;;;;;;;;;25.10;49.20;23.70;100382.00;;;;5109157;27;20461;-70
2022/09/09 00:35:22;;;;;;;;;;;25.10;49.20;23.70;100384.00;;;;5087666;28;20380;-71
2022/09/09 00:38:16;;;;;;;;;;;25.10;49.20;23.70;100372.00;;;;5099249;27;19920;-71
2022/09/09 00:41:22;;;;;;;;;;;25.10;49.30;23.70;100369.00;;;;5104983;27;19923;-71
2022/09/09 00:44:15;;;;;;;;;;;25.10;49.30;23.70;100370.00;;;;5115392;27;19969;-71
2022/09/09 00:47:22;;;;;;;;;;;25.00;49.30;23.70;100371.00;;;;5084731;28;19998;-70
2022/09/09 00:50:29;;;;;;;;;;;25.00;49.40;23.70;100369.00;;;;5097598;28;19920;-70
2022/09/09 00:53:56;;;;;;;;;;;25.00;49.40;23.70;100372.00;;;;5100583;27;19920;-70
2022/09/09 00:57:03;;;;;;;;;;;25.00;49.40;23.70;100373.00;;;;5105138;27;19993;-70
2022/09/09 01:00:20;;;;;;;;;;;25.00;49.40;23.70;100380.00;;;;5086347;28;19918;-71
2022/09/09 01:03:29;;;;;;;;;;;25.00;49.40;23.70;100379.00;;;;5099168;28;19920;-71
2022/09/09 01:06:21;;;;;;;;;;;25.00;49.40;23.70;100371.00;;;;5092918;28;19911;-71
2022/09/09 01:09:13;;;;;;;;;;;25.00;49.50;23.70;100371.00;;;;5095707;27;19915;-71
2022/09/09 01:12:02;;;;;;;;;;;25.00;49.50;23.70;100374.00;;;;5101071;27;19915;-71
2022/09/09 01:14:50;;;;;;;;;;;25.00;49.50;23.70;100369.00;;;;5096151;27;19920;-70
2022/09/09 01:17:47;;;;;;;;;;;25.00;49.60;23.70;100366.00;;;;5086956;28;19920;-70
2022/09/09 01:20:55;;;;;;;;;;;25.00;49.50;23.70;100359.00;;;;5084559;28;20429;-70
2022/09/09 01:24:11;;;;;;;;;;;25.00;49.50;23.70;100363.00;;;;5085586;28;19916;-70
2022/09/09 01:26:59;;;;;;;;;;;25.00;49.50;23.70;100368.00;;;;5100330;27;19919;-70
2022/09/09 01:29:44;;;;;;;;;;;25.00;49.50;23.60;100362.00;;;;5086755;27;19919;-71
2022/09/09 01:32:37;;;;;;;;;;;25.00;49.50;23.70;100367.00;;;;5105320;28;19915;-71
2022/09/09 01:35:31;;;;;;;;;;;25.00;49.50;23.60;100375.00;;;;5095891;28;20399;-70
2022/09/09 01:38:17;;;;;;;;;;;25.00;49.50;23.60;100373.00;;;;5103082;27;19967;-70
2022/09/09 01:41:03;;;;;;;;;;;25.00;49.40;23.60;100370.00;;;;5091514;27;19911;-70
2022/09/09 01:43:51;;;;;;;;;;;24.90;49.30;23.60;100372.00;;;;5103092;27;19912;-70
2022/09/09 01:46:37;;;;;;;;;;;24.90;49.30;23.60;100368.00;;;;5097728;27;19959;-70
2022/09/09 01:49:23;;;;;;;;;;;25.00;49.40;23.60;100368.00;;;;5091689;28;19915;-70
2022/09/09 01:52:09;;;;;;;;;;;24.90;49.30;23.60;100372.00;;;;5103228;28;19912;-70
2022/09/09 01:54:55;;;;;;;;;;;24.90;49.30;23.60;100386.00;;;;5100474;28;20323;-70
2022/09/09 01:58:14;;;;;;;;;;;24.90;49.30;23.60;100383.00;;;;5098194;28;19923;-70
2022/09/09 02:01:24;;;;;;;;;;;24.90;49.40;23.60;100390.00;;;;5095373;27;20353;-70
2022/09/09 02:04:37;;;;;;;;;;;24.90;49.40;23.60;100395.00;;;;5101404;27;19918;-70
2022/09/09 02:07:41;;;;;;;;;;;24.90;49.30;23.60;100396.00;;;;5094747;28;19936;-70
2022/09/09 02:10:31;;;;;;;;;;;24.90;49.40;23.60;100394.00;;;;5103795;28;19959;-70
2022/09/09 02:13:18;;;;;;;;;;;24.90;49.30;23.60;100401.00;;;;5100687;28;19916;-70
2022/09/09 02:16:11;;;;;;;;;;;24.90;49.30;23.60;100398.00;;;;5070994;28;20362;-70
2022/09/09 02:19:02;;;;;;;;;;;24.90;49.30;23.60;100403.00;;;;5083715;28;19919;-70
2022/09/09 02:21:48;;;;;;;;;;;24.90;49.30;23.60;100399.00;;;;5109890;27;19928;-70
2022/09/09 02:24:35;;;;;;;;;;;24.90;49.30;23.50;100403.00;;;;5081033;28;19916;-71
2022/09/09 02:27:21;;;;;;;;;;;24.90;49.30;23.50;100401.00;;;;5089776;28;19916;-71
2022/09/09 02:30:08;;;;;;;;;;;24.90;49.30;23.50;100405.00;;;;5081282;28;20269;-71
2022/09/09 02:32:56;;;;;;;;;;;24.80;49.30;23.50;100404.00;;;;5102348;28;20280;-71
2022/09/09 02:35:42;;;;;;;;;;;24.80;49.30;23.50;100401.00;;;;5101260;28;19915;-71
2022/09/09 02:38:31;;;;;;;;;;;24.90;49.30;23.50;100398.00;;;;5082719;28;19926;-71
2022/09/09 02:41:19;;;;;;;;;;;24.80;49.30;23.50;100391.00;;;;5100175;28;19918;-70
2022/09/09 02:44:09;;;;;;;;;;;24.80;49.30;23.50;100397.00;;;;5084460;28;19911;-71
2022/09/09 02:46:58;;;;;;;;;;;24.90;49.30;23.50;100401.00;;;;5107830;27;20290;-70
2022/09/09 02:50:12;;;;;;;;;;;24.80;49.30;23.50;100396.00;;;;5099353;28;20342;-70
2022/09/09 02:53:15;;;;;;;;;;;24.90;49.30;23.50;100392.00;;;;5097351;27;20011;-70
2022/09/09 02:56:09;;;;;;;;;;;24.80;49.30;23.50;100396.00;;;;5086300;27;19912;-70
2022/09/09 02:58:55;;;;;;;;;;;24.80;49.30;23.50;100395.00;;;;5065617;28;19999;-70
2022/09/09 03:01:41;;;;;;;;;;;24.80;49.30;23.50;100398.00;;;;5094979;28;19915;-71
2022/09/09 03:04:27;;;;;;;;;;;24.80;49.30;23.50;100405.00;;;;5102727;28;19912;-70
2022/09/09 03:07:13;;;;;;;;;;;24.80;49.30;23.50;100402.00;;;;5098000;28;19920;-70
2022/09/09 03:09:59;;;;;;;;;;;24.80;49.30;23.40;100401.00;;;;5096475;27;19920;-70
2022/09/09 03:12:45;;;;;;;;;;;24.80;49.30;23.40;100405.00;;;;5097705;27;20329;-70
2022/09/09 03:15:34;;;;;;;;;;;24.80;49.30;23.40;100407.00;;;;5085526;28;19957;-70
2022/09/09 03:18:20;;;;;;;;;;;24.80;49.30;23.40;100396.00;;;;5099820;27;19926;-70
2022/09/09 03:21:06;;;;;;;;;;;24.80;49.30;23.40;100401.00;;;;5088084;27;19916;-70
2022/09/09 03:23:52;;;;;;;;;;;24.80;49.30;23.40;100393.00;;;;5100239;27;19912;-70
2022/09/09 03:26:40;;;;;;;;;;;24.70;49.20;23.40;100402.00;;;;5099887;27;20377;-70
2022/09/09 03:29:25;;;;;;;;;;;24.70;49.20;23.40;100401.00;;;;5099616;27;19923;-70
2022/09/09 03:32:12;;;;;;;;;;;24.60;49.20;23.40;100402.00;;;;5097031;27;19990;-70
2022/09/09 03:34:58;;;;;;;;;;;24.70;49.20;23.40;100400.00;;;;5083867;27;19931;-71
2022/09/09 03:37:44;;;;;;;;;;;24.80;49.30;23.40;100393.00;;;;5097832;27;20357;-70
2022/09/09 03:40:30;;;;;;;;;;;24.70;49.20;23.40;100391.00;;;;5095032;27;19912;-70
2022/09/09 03:43:16;;;;;;;;;;;24.60;49.20;23.40;100390.00;;;;5091224;28;19912;-70
2022/09/09 03:46:02;;;;;;;;;;;24.70;49.20;23.40;100387.00;;;;5096623;27;19912;-70
2022/09/09 03:48:48;;;;;;;;;;;24.70;49.20;23.40;100388.00;;;;5096446;27;20037;-70
2022/09/09 03:51:36;;;;;;;;;;;24.60;49.30;23.40;100389.00;;;;5093710;27;19916;-70
2022/09/09 03:54:23;;;;;;;;;;;24.70;49.20;23.30;100391.00;;;;5101431;27;19919;-70
2022/09/09 03:57:09;;;;;;;;;;;24.70;49.20;23.30;100381.00;;;;5098474;27;19912;-70
2022/09/09 03:59:55;;;;;;;;;;;24.70;49.20;23.30;100390.00;;;;5091652;28;19916;-71
2022/09/09 04:02:43;;;;;;;;;;;24.60;49.30;23.30;100381.00;;;;5094693;28;20577;-71
2022/09/09 04:05:29;;;;;;;;;;;24.70;49.30;23.30;100376.00;;;;5093215;28;20443;-70
2022/09/09 04:08:15;;;;;;;;;;;24.70;49.30;23.30;100375.00;;;;5090883;28;19912;-70
2022/09/09 04:11:04;;;;;;;;;;;24.70;49.30;23.30;100379.00;;;;5096876;28;19911;-70
2022/09/09 04:13:50;;;;;;;;;;;24.70;49.30;23.40;100375.00;;;;5103380;28;19919;-71
2022/09/09 04:16:37;;;;;;;;;;;24.70;49.20;23.30;100381.00;;;;5094829;27;20297;-70
2022/09/09 04:19:23;;;;;;;;;;;24.70;49.30;23.30;100368.00;;;;5096257;27;20010;-70
2022/09/09 04:22:09;;;;;;;;;;;24.70;49.20;23.30;100378.00;;;;5104043;28;19912;-71
2022/09/09 04:24:55;;;;;;;;;;;24.70;49.30;23.30;100370.00;;;;5091681;28;19919;-70
2022/09/09 04:27:42;;;;;;;;;;;24.70;49.30;23.30;100380.00;;;;5099559;28;19940;-70
2022/09/09 04:30:28;;;;;;;;;;;24.70;49.30;23.30;100380.00;;;;5082411;28;19967;-71
2022/09/09 04:33:14;;;;;;;;;;;24.60;49.20;23.30;100373.00;;;;5090534;28;19923;-71
2022/09/09 04:36:00;;;;;;;;;;;24.40;49.10;23.30;100385.00;;;;5104997;28;19912;-71
2022/09/09 04:38:48;;;;;;;;;;;24.60;49.30;23.30;100386.00;;;;5099161;28;19923;-71
2022/09/09 04:41:35;;;;;;;;;;;24.70;49.30;23.30;100386.00;;;;5100790;28;19912;-70
2022/09/09 04:44:21;;;;;;;;;;;24.60;49.30;23.30;100383.00;;;;5097993;28;19969;-71
2022/09/09 04:47:07;;;;;;;;;;;24.70;49.30;23.30;100386.00;;;;5096331;28;19912;-70
2022/09/09 04:49:54;;;;;;;;;;;24.60;49.30;23.30;100394.00;;;;5105061;28;20379;-70
2022/09/09 04:52:40;;;;;;;;;;;24.70;49.30;23.30;100387.00;;;;5092244;28;19994;-70
2022/09/09 04:55:26;;;;;;;;;;;24.60;49.40;23.30;100394.00;;;;5094522;28;19935;-70
2022/09/09 04:58:13;;;;;;;;;;;24.60;49.30;23.30;100388.00;;;;5095242;28;20326;-70
2022/09/09 05:01:06;;;;;;;;;;;24.60;49.30;23.30;100400.00;;;;5100119;28;20508;-70
2022/09/09 05:03:53;;;;;;;;;;;24.60;49.30;23.30;100397.00;;;;5098399;28;20384;-71
2022/09/09 05:06:39;;;;;;;;;;;24.60;49.30;23.30;100400.00;;;;5098396;28;19958;-70
2022/09/09 05:09:25;;;;;;;;;;;24.60;49.30;23.20;100399.00;;;;5097566;28;19919;-70
2022/09/09 05:12:11;;;;;;;;;;;24.60;49.30;23.20;100402.00;;;;5100004;28;20017;-70
2022/09/09 05:14:57;;;;;;;;;;;24.60;49.30;23.20;100402.00;;;;5101161;27;20277;-70
2022/09/09 05:17:43;;;;;;;;;;;24.60;49.30;23.20;100404.00;;;;5108868;27;19923;-70
2022/09/09 05:20:29;;;;;;;;;;;24.60;49.30;23.20;100397.00;;;;5103890;27;19961;-70
2022/09/09 05:23:16;;;;;;;;;;;24.50;49.30;23.20;100400.00;;;;5081746;28;19911;-70
2022/09/09 05:26:02;;;;;;;;;;;24.50;49.30;23.20;100399.00;;;;5108947;27;20440;-70
2022/09/09 05:28:48;;;;;;;;;;;24.50;49.30;23.20;100399.00;;;;5094041;28;19930;-70
2022/09/09 05:31:34;;;;;;;;;;;24.50;50.00;23.20;100402.00;;;;5105234;27;19916;-70
2022/09/09 05:34:20;;;;;;;;;;;24.50;49.30;23.20;100394.00;;;;5107990;27;20956;-70
2022/09/09 05:37:07;;;;;;;;;;;24.60;49.40;23.20;100399.00;;;;5103853;27;19916;-70
2022/09/09 05:39:53;;;;;;;;;;;24.50;49.40;23.20;100402.00;;;;5106168;27;19912;-70
2022/09/09 05:42:39;;;;;;;;;;;24.50;49.40;23.20;100398.00;;;;5105680;27;19922;-70
2022/09/09 05:45:25;;;;;;;;;;;24.50;49.40;23.20;100405.00;;;;5098485;27;19911;-70
2022/09/09 05:48:11;;;;;;;;;;;24.50;49.40;23.10;100403.00;;;;5099737;27;19922;-70
2022/09/09 05:50:58;;;;;;;;;;;24.50;49.40;23.10;100401.00;;;;5104924;27;19911;-70
2022/09/09 05:53:44;;;;;;;;;;;24.40;49.40;23.10;100403.00;;;;5093376;27;20404;-70
2022/09/09 05:56:32;;;;;;;;;;;24.40;49.40;23.10;100403.00;;;;5102289;27;20324;-71
2022/09/09 05:59:18;;;;;;;;;;;24.40;49.40;23.10;100404.00;;;;5104303;27;19915;-70
2022/09/09 06:02:04;;;;;;;;;;;24.50;49.50;23.10;100407.00;;;;5106325;27;20316;-71
2022/09/09 06:04:50;;;;;;;;;;;24.50;49.50;23.10;100394.00;;;;5103499;27;20339;-71
2022/09/09 06:07:37;;;;;;;;;;;24.30;49.40;23.10;100398.00;;;;5104494;27;19912;-71
2022/09/09 06:10:23;;;;;;;;;;;24.40;49.50;23.10;100395.00;;;;5100919;27;19915;-71
2022/09/09 06:13:09;;;;;;;;;;;24.50;49.60;23.10;100397.00;;;;5104857;27;19920;-70
2022/09/09 06:15:55;;;;;;;;;;;24.40;49.60;23.10;100392.00;;;;5096712;27;19915;-70
2022/09/09 06:18:41;;;;;;;;;;;24.40;49.50;23.10;100393.00;;;;5088400;27;20379;-71
2022/09/09 06:21:32;;;;;;;;;;;24.40;49.60;23.10;100394.00;;;;5096806;27;19919;-70
2022/09/09 06:24:19;;;;;;;;;;;24.40;49.60;23.10;100391.00;;;;5101326;27;19920;-70
2022/09/09 06:27:05;;;;;;;;;;;24.50;49.60;23.10;100395.00;;;;5099592;27;19912;-71
2022/09/09 06:29:51;;;;;;;;;;;24.60;49.70;23.10;100395.00;;;;5100311;27;20146;-70
2022/09/09 06:32:37;;;;;;;;;;;24.50;49.60;23.20;100398.00;;;;5103346;27;20479;-71
2022/09/09 06:35:23;;;;;;;;;;;24.50;49.60;23.10;100388.00;;;;5096914;27;19935;-70
2022/09/09 06:38:09;;;;;;;;;;;24.50;49.70;23.10;100397.00;;;;5104914;27;19927;-71
2022/09/09 06:40:58;;;;;;;;;;;24.50;49.70;23.20;100396.00;;;;5102804;27;19926;-70
2022/09/09 06:43:44;;;;;;;;;;;24.50;49.70;23.20;100401.00;;;;5101007;27;19926;-71
2022/09/09 06:46:32;;;;;;;;;;;24.40;49.60;23.20;100398.00;;;;5102363;27;19942;-70
2022/09/09 06:49:18;;;;;;;;;;;24.50;49.70;23.20;100403.00;;;;5083539;27;19973;-71
2022/09/09 06:52:04;;;;;;;;;;;24.50;49.70;23.20;100403.00;;;;5101751;27;19912;-71
2022/09/09 06:54:50;;;;;;;;;;;24.40;49.60;23.20;100401.00;;;;5095602;27;19915;-70
2022/09/09 06:57:36;;;;;;;;;;;24.40;49.60;23.20;100402.00;;;;5101499;27;19958;-70
2022/09/09 07:00:22;;;;;;;;;;;24.50;49.70;23.20;100409.00;;;;5097219;27;19918;-71
2022/09/09 07:03:09;;;;;;;;;;;24.50;49.70;23.20;100408.00;;;;5096996;27;19915;-70
2022/09/09 07:05:56;;;;;;;;;;;24.50;49.70;23.20;100401.00;;;;5095065;27;20368;-70
2022/09/09 07:08:42;;;;;;;;;;;24.50;49.70;23.20;100407.00;;;;5075237;28;19912;-70
2022/09/09 07:11:29;;;;;;;;;;;24.60;49.80;23.20;100406.00;;;;5095917;27;19922;-71
2022/09/09 07:14:15;;;;;;;;;;;24.50;49.70;23.20;100414.00;;;;5094583;27;19982;-70
2022/09/09 07:17:01;;;;;;;;;;;24.50;49.80;23.20;100404.00;;;;5096144;27;20319;-70
2022/09/09 07:19:48;;;;;;;;;;;24.50;49.80;23.20;100403.00;;;;5093823;27;20405;-70
2022/09/09 07:22:34;;;;;;;;;;;24.50;49.80;23.20;100408.00;;;;5098703;27;19915;-71
2022/09/09 07:25:20;;;;;;;;;;;24.60;49.80;23.20;100415.00;;;;5098646;28;19915;-71
2022/09/09 07:28:07;;;;;;;;;;;24.50;49.80;23.20;100413.00;;;;5101923;27;20304;-71
2022/09/09 07:30:57;;;;;;;;;;;24.50;49.80;23.20;100418.00;;;;5093729;28;19916;-71
2022/09/09 07:33:44;;;;;;;;;;;24.50;49.80;23.20;100412.00;;;;5095988;27;19916;-70
2022/09/09 07:36:40;;;;;;;;;;;24.50;49.80;23.20;100416.00;;;;5095513;27;19974;-70
2022/09/09 07:39:26;;;;;;;;;;;24.50;49.90;23.20;100423.00;;;;5098364;28;19963;-71
2022/09/09 07:42:13;;;;;;;;;;;24.50;49.90;23.20;100424.00;;;;5094175;27;20180;-71
2022/09/09 07:44:59;;;;;;;;;;;24.50;49.80;23.20;100417.00;;;;5102085;27;19920;-70
2022/09/09 07:47:45;;;;;;;;;;;24.50;49.80;23.20;100421.00;;;;5096215;28;19915;-70
2022/09/09 07:50:31;;;;;;;;;;;24.60;50.00;23.20;100417.00;;;;5093520;27;19912;-71
2022/09/09 07:53:17;;;;;;;;;;;24.50;49.90;23.20;100420.00;;;;5100780;27;20376;-71
2022/09/09 07:56:05;;;;;;;;;;;24.50;49.90;23.20;100416.00;;;;5096286;28;20357;-71
2022/09/09 07:58:52;;;;;;;;;;;24.50;49.90;23.20;100429.00;;;;5074840;28;19958;-71
2022/09/09 08:01:40;;;;;;;;;;;24.50;50.00;23.10;100424.00;;;;5102487;27;19915;-71
2022/09/09 08:04:27;;;;;;;;;;;24.40;50.00;23.20;100424.00;;;;5090909;28;19920;-71
2022/09/09 08:07:13;;;;;;;;;;;24.50;50.00;23.10;100424.00;;;;5101259;27;19919;-71
2022/09/09 08:09:59;;;;;;;;;;;24.50;50.00;23.10;100420.00;;;;5097567;28;19922;-71
2022/09/09 08:12:45;;;;;;;;;;;24.50;50.00;23.10;100418.00;;;;5099139;27;19920;-71
2022/09/09 08:15:32;;;;;;;;;;;24.40;50.00;23.10;100416.00;;;;5090879;28;19920;-71
2022/09/09 08:18:18;;;;;;;;;;;24.50;50.10;23.10;100428.00;;;;5105487;27;19916;-71
2022/09/09 08:21:08;;;;;;;;;;;24.50;50.10;23.10;100417.00;;;;5106685;27;19916;-71
2022/09/09 08:23:56;;;;;;;;;;;24.50;50.10;23.10;100421.00;;;;5073243;28;19912;-71
2022/09/09 08:26:43;;;;;;;;;;;24.50;50.10;23.10;100421.00;;;;5104821;28;20272;-71
2022/09/09 08:29:29;;;;;;;;;;;24.50;50.10;23.10;100422.00;;;;5082737;28;20379;-70
2022/09/09 08:32:16;;;;;;;;;;;24.50;50.20;23.10;100423.00;;;;5100211;28;19926;-71
2022/09/09 08:35:02;;;;;;;;;;;24.50;50.20;23.10;100434.00;;;;5100145;28;19924;-71
2022/09/09 08:37:48;;;;;;;;;;;24.50;50.20;23.10;100410.00;;;;5079744;28;19994;-70
2022/09/09 08:40:35;;;;;;;;;;;24.50;50.20;23.10;100425.00;;;;5097447;28;20299;-71
2022/09/09 08:43:21;;;;;;;;;;;24.50;50.20;23.10;100426.00;;;;5096178;28;19919;-71
2022/09/09 08:46:11;;;;;;;;;;;24.50;50.10;23.10;100435.00;;;;5110543;27;19920;-70
2022/09/09 08:49:01;;;;;;;;;;;24.50;50.10;23.20;100426.00;;;;5081212;28;20347;-71
2022/09/09 08:51:47;;;;;;;;;;;24.60;50.20;23.10;100426.00;;;;5085390;27;19934;-71
2022/09/09 08:54:34;;;;;;;;;;;24.50;50.10;23.20;100436.00;;;;5089416;28;19939;-71
2022/09/09 08:57:22;;;;;;;;;;;24.60;50.20;23.20;100436.00;;;;5104031;27;19916;-71
2022/09/09 09:00:10;;;;;;;;;;;24.40;50.10;23.20;100434.00;;;;5085399;28;19916;-71
2022/09/09 09:03:19;;;;;;;;;;;24.50;50.10;23.20;100443.00;;;;5085024;27;20361;-70
2022/09/09 09:06:27;;;;;;;;;;;24.50;50.10;23.20;100441.00;;;;5110184;27;19912;-71
2022/09/09 09:09:31;;;;;;;;;;;24.50;50.10;23.20;100441.00;;;;5107675;27;20381;-71
2022/09/09 09:12:19;;;;;;;;;;;24.50;50.10;23.20;100445.00;;;;5112915;27;20651;-71
2022/09/09 09:15:20;;;;;;;;;;;24.50;50.10;23.20;100445.00;;;;5087836;27;19919;-71
2022/09/09 09:18:07;;;;;;;;;;;24.50;50.10;23.20;100440.00;;;;5090168;27;19919;-71
2022/09/09 09:21:28;;;;;;;;;;;24.50;50.10;23.20;100445.00;;;;5082450;28;19912;-71
2022/09/09 09:24:18;;;;;;;;;;;24.60;50.10;23.20;100436.00;;;;5086436;28;20250;-70
2022/09/09 09:27:14;;;;;;;;;;;24.50;50.10;23.20;100437.00;;;;5103297;27;19922;-70
2022/09/09 09:30:06;;;;;;;;;;;24.50;50.20;23.20;100438.00;;;;5084688;28;20244;-71
2022/09/09 09:33:21;;;;;;;;;;;24.50;50.20;23.20;100435.00;;;;5086301;27;20432;-70
2022/09/09 09:36:08;;;;;;;;;;;24.60;50.20;23.20;100441.00;;;;5085158;27;20005;-70
2022/09/09 09:39:00;;;;;;;;;;;24.60;50.20;23.20;100445.00;;;;5099628;28;19911;-71
2022/09/09 09:41:46;;;;;;;;;;;24.60;50.20;23.20;100447.00;;;;5116134;27;20029;-70
2022/09/09 09:44:32;;;;;;;;;;;24.50;50.10;23.20;100439.00;;;;5096056;27;19915;-70
2022/09/09 09:47:19;;;;;;;;;;;24.60;50.20;23.20;100445.00;;;;5083996;28;19919;-71
2022/09/09 09:50:16;;;;;;;;;;;24.50;50.20;23.20;100440.00;;;;5095571;27;20414;-70
2022/09/09 09:53:06;;;;;;;;;;;24.60;50.20;23.20;100439.00;;;;5084477;27;19916;-70
2022/09/09 09:56:14;;;;;;;;;;;24.60;50.20;23.20;100435.00;;;;5099124;28;19950;-70
2022/09/09 09:58:59;;;;;;;;;;;24.60;50.20;23.20;100433.00;;;;5093485;28;19958;-71
2022/09/09 10:01:45;;;;;;;;;;;24.60;50.40;23.30;100428.00;;;;5100228;28;19912;-70
2022/09/09 10:04:33;;;;;;;;;;;24.60;50.10;23.30;100421.00;;;;5100447;28;20311;-72
2022/09/09 10:07:20;;;;;;;;;;;24.60;50.10;23.30;100422.00;;;;5103708;27;19911;-71
2022/09/09 10:10:19;;;;;;;;;;;24.60;50.10;23.30;100418.00;;;;5086167;27;19959;-71
2022/09/09 10:13:35;;;;;;;;;;;24.70;50.10;23.30;100420.00;;;;5078939;27;19918;-71
2022/09/09 10:16:24;;;;;;;;;;;24.70;50.10;23.30;100427.00;;;;5099009;27;19926;-71
2022/09/09 10:19:13;;;;;;;;;;;24.70;50.00;23.30;100426.00;;;;5088171;28;19922;-71
2022/09/09 10:22:21;;;;;;;;;;;24.60;49.90;23.30;100432.00;;;;5086475;28;20388;-71
2022/09/09 10:25:22;;;;;;;;;;;24.70;50.00;23.30;100435.00;;;;5093465;28;20483;-70
2022/09/09 10:28:17;;;;;;;;;;;24.70;50.00;23.30;100417.00;;;;5093908;28;20026;-71
2022/09/09 10:31:22;;;;;;;;;;;24.70;50.00;23.30;100433.00;;;;5100997;27;20341;-70
2022/09/09 10:34:14;;;;;;;;;;;24.70;49.90;23.40;100431.00;;;;5095735;27;20010;-71
2022/09/09 10:37:00;;;;;;;;;;;24.80;50.00;23.40;100414.00;;;;5100448;27;20414;-71
2022/09/09 10:39:47;;;;;;;;;;;24.70;49.70;23.40;100418.00;;;;5102866;27;19912;-71
2022/09/09 10:42:34;;;;;;;;;;;24.80;49.60;23.40;100430.00;;;;5095738;27;19915;-71
2022/09/09 10:45:33;;;;;;;;;;;24.80;49.50;23.40;100421.00;;;;5090608;27;19919;-70
2022/09/09 10:48:30;;;;;;;;;;;24.80;49.50;23.50;100429.00;;;;5089763;27;19947;-70
2022/09/09 10:51:37;;;;;;;;;;;24.80;49.40;23.50;100433.00;;;;5099370;27;19912;-71
2022/09/09 10:54:36;;;;;;;;;;;24.80;49.30;23.50;100419.00;;;;5102266;27;20349;-70
2022/09/09 10:57:21;;;;;;;;;;;24.80;49.30;23.50;100426.00;;;;5112060;27;19919;-71
2022/09/09 11:00:19;;;;;;;;;;;24.80;49.30;23.50;100432.00;;;;5097286;28;19916;-70
2022/09/09 11:03:07;;;;;;;;;;;24.90;49.30;23.50;100416.00;;;;5094454;27;19911;-70
2022/09/09 11:06:40;;;;;;;;;;;25.00;49.20;23.50;100420.00;;;;5072046;28;19922;-71
2022/09/09 11:09:28;;;;;;;;;;;24.90;49.00;23.50;100411.00;;;;5100746;27;19950;-70
2022/09/09 11:12:17;;;;;;;;;;;24.90;48.80;23.50;100412.00;;;;5097293;27;20317;-70
2022/09/09 11:15:06;;;;;;;;;;;24.90;48.80;23.50;100413.00;;;;5079041;28;19915;-71
2022/09/09 11:17:54;;;;;;;;;;;25.00;48.90;23.60;100407.00;;;;5068976;28;19969;-71
2022/09/09 11:20:41;;;;;;;;;;;24.90;48.80;23.60;100403.00;;;;5078548;27;20261;-70
2022/09/09 11:23:41;;;;;;;;;;;25.00;48.90;23.60;100403.00;;;;5090385;28;19912;-71
2022/09/09 11:26:48;;;;;;;;;;;25.00;48.80;23.60;100410.00;;;;5105167;27;20004;-70
2022/09/09 11:29:57;;;;;;;;;;;25.00;48.70;23.70;100403.00;;;;5096790;28;20325;-71
2022/09/09 11:33:21;;;;;;;;;;;25.00;48.80;23.70;100405.00;;;;5081497;28;19916;-71
2022/09/09 11:36:10;;;;;;;;;;;25.10;48.80;23.70;100402.00;;;;5102390;28;19916;-71
2022/09/09 11:39:31;;;;;;;;;;;25.10;48.80;23.70;100406.00;;;;5097752;28;20433;-71
2022/09/09 11:42:20;;;;;;;;;;;25.10;48.80;23.70;100397.00;;;;5084052;27;20452;-70
2022/09/09 11:45:35;;;;;;;;;;;25.10;48.80;23.80;100401.00;;;;5093739;27;20412;-71
2022/09/09 11:48:43;;;;;;;;;;;25.10;48.80;23.80;100410.00;;;;5098788;27;20396;-70
2022/09/09 11:51:30;;;;;;;;;;;25.20;48.80;23.80;100408.00;;;;5097057;27;20276;-70
2022/09/09 11:54:34;;;;;;;;;;;25.30;48.90;23.80;100411.00;;;;5083127;27;20285;-72
2022/09/09 11:57:32;;;;;;;;;;;25.20;48.80;23.80;100407.00;;;;5087086;27;19926;-71
2022/09/09 12:00:40;;;;;;;;;;;25.20;48.70;23.90;100404.00;;;;5088236;27;19920;-72
2022/09/09 12:03:45;;;;;;;;;;;25.30;48.80;23.90;100404.00;;;;5106077;27;19998;-71
2022/09/09 12:06:32;;;;;;;;;;;25.30;48.80;23.90;100405.00;;;;5113568;27;20153;-71
2022/09/09 12:09:25;;;;;;;;;;;25.30;48.70;23.90;100397.00;;;;5086405;27;19919;-71
2022/09/09 12:12:11;;;;;;;;;;;25.30;48.70;23.90;100402.00;;;;5098673;28;19919;-71
2022/09/09 12:15:06;;;;;;;;;;;25.30;48.70;23.90;100403.00;;;;5087598;28;21416;-71
2022/09/09 12:17:53;;;;;;;;;;;25.40;48.80;23.90;100406.00;;;;5104035;28;20067;-71
2022/09/09 12:20:39;;;;;;;;;;;25.40;48.70;23.90;100394.00;;;;5080558;28;20030;-71
2022/09/09 12:23:49;;;;;;;;;;;25.40;48.70;24.00;100384.00;;;;5096526;28;19979;-71
2022/09/09 12:26:44;;;;;;;;;;;25.40;48.70;23.90;100378.00;;;;5093344;28;19916;-71
2022/09/09 12:29:38;;;;;;;;;;;25.40;48.60;24.00;100380.00;;;;5096700;28;19969;-71
2022/09/09 12:32:25;;;;;;;;;;;25.40;48.50;24.00;100381.00;;;;5084393;28;19919;-71
2022/09/09 12:35:20;;;;;;;;;;;25.40;48.50;24.00;100379.00;;;;5086371;28;19926;-72
2022/09/09 12:38:11;;;;;;;;;;;25.40;48.50;24.00;100387.00;;;;5085735;28;19911;-72
2022/09/09 12:40:57;;;;;;;;;;;25.40;48.40;24.00;100385.00;;;;5103460;28;19934;-72
2022/09/09 12:43:43;;;;;;;;;;;25.50;48.50;24.00;100388.00;;;;5081856;28;20019;-72
2022/09/09 12:46:38;;;;;;;;;;;25.30;48.30;24.00;100389.00;;;;5099069;28;19915;-72
2022/09/09 12:49:38;;;;;;;;;;;25.50;48.40;24.00;100389.00;;;;5098252;28;20261;-72
2022/09/09 12:52:29;;;;;;;;;;;25.50;48.40;24.00;100396.00;;;;5096898;28;20364;-72
2022/09/09 12:55:37;;;;;;;;;;;25.50;48.30;24.00;100395.00;;;;5094769;28;19942;-72
2022/09/09 12:58:22;;;;;;;;;;;25.50;48.30;24.00;100392.00;;;;5080538;28;19912;-72
2022/09/09 13:01:18;;;;;;;;;;;25.50;48.30;24.00;100391.00;;;;5069723;28;19957;-72
2022/09/09 13:04:20;;;;;;;;;;;25.50;48.20;24.00;100389.00;;;;5083510;28;19912;-71
2022/09/09 13:07:09;;;;;;;;;;;25.50;48.20;24.00;100393.00;;;;5097122;28;19959;-71
2022/09/09 13:09:55;;;;;;;;;;;25.50;48.20;24.00;100390.00;;;;5100282;28;20010;-72
2022/09/09 13:12:41;;;;;;;;;;;25.40;48.20;24.00;100385.00;;;;5088218;28;19912;-73
2022/09/09 13:15:28;;;;;;;;;;;25.50;48.20;24.00;100388.00;;;;5084504;28;20379;-71
2022/09/09 13:18:14;;;;;;;;;;;25.50;48.30;24.10;100386.00;;;;5082639;28;19955;-71
2022/09/09 13:21:00;;;;;;;;;;;25.50;48.20;24.10;100375.00;;;;5098611;28;20002;-71
2022/09/09 13:23:50;;;;;;;;;;;25.50;48.20;24.10;100381.00;;;;5093839;28;20454;-71
2022/09/09 13:26:39;;;;;;;;;;;25.50;48.20;24.10;100382.00;;;;5100055;28;19918;-71
2022/09/09 13:29:25;;;;;;;;;;;25.50;48.10;24.10;100385.00;;;;5089472;28;20021;-71
2022/09/09 13:32:16;;;;;;;;;;;25.50;48.00;24.10;100381.00;;;;5096897;28;19912;-71
2022/09/09 13:35:03;;;;;;;;;;;25.50;47.90;24.10;100374.00;;;;5084409;28;20262;-72
2022/09/09 13:37:49;;;;;;;;;;;25.50;47.80;24.10;100375.00;;;;5095943;27;20006;-71
2022/09/09 13:40:34;;;;;;;;;;;25.50;47.70;24.10;100366.00;;;;5113654;27;19923;-71
2022/09/09 13:43:22;;;;;;;;;;;25.40;47.60;24.10;100356.00;;;;5096522;28;19920;-71
2022/09/09 13:46:42;;;;;;;;;;;25.50;47.80;24.10;100360.00;;;;5084051;28;20320;-71